Champaign, Illinois
Current Conditions -  °F | °C
As of 11:53 AM on Thursday 23 Oct 2014 (Local Time) from KCMI Reporting Station
Clear Clear  
Wind Chill: 57°   Ceiling: Unl
Heat Index: 57°   Visibility: 10mi
Dew Point: 43°   Wind: 8mph
Humidity: 59%   Direction: 210°SSW
Pressure: 30.21"   Gusts: NA
Location:  40.11°N, 88.24°W
Report Text: KCMI 231653Z 21007KT 10SM CLR 14/06 A3021 RMK AO2 SLP234 T01390061 $
Loading
Personal Weather Stations






























Interactive Weather Map
Tropical Storm Tracking
New forecast layout! Learn more

10-Day Weather Forecast

Advertisements
Track Severe Weather on mobile